createdAt,value
2019-05-15T00:00:18.688Z,1022.29
2019-05-15T00:01:19.259Z,1022.29
2019-05-15T00:02:18.674Z,1022.34
2019-05-15T00:03:19.697Z,1022.32
2019-05-15T00:04:18.794Z,1022.30
2019-05-15T00:05:18.935Z,1022.30
2019-05-15T00:06:19.175Z,1022.29
2019-05-15T00:07:18.652Z,1022.26
2019-05-15T00:08:18.635Z,1022.24
2019-05-15T00:09:19.247Z,1022.26
2019-05-15T00:10:18.597Z,1022.22
2019-05-15T00:11:19.282Z,1022.21
2019-05-15T00:12:19.010Z,1022.22
2019-05-15T00:13:18.633Z,1022.20
2019-05-15T00:14:18.574Z,1022.21
2019-05-15T00:15:18.559Z,1022.17
2019-05-15T00:16:18.553Z,1022.20
2019-05-15T00:17:19.232Z,1022.21
2019-05-15T00:18:18.692Z,1022.20
2019-05-15T00:19:18.890Z,1022.22
2019-05-15T00:20:20.219Z,1022.19
2019-05-15T00:21:18.504Z,1022.21
2019-05-15T00:22:18.556Z,1022.20
2019-05-15T00:23:18.488Z,1022.19
2019-05-15T00:24:18.475Z,1022.19
2019-05-15T00:25:18.932Z,1022.18
2019-05-15T00:26:33.386Z,1022.20
2019-05-15T00:27:20.182Z,1022.18
2019-05-15T00:28:18.680Z,1022.18
2019-05-15T00:29:19.724Z,1022.19
2019-05-15T00:30:18.531Z,1022.19
2019-05-15T00:31:18.718Z,1022.12
2019-05-15T00:32:18.674Z,1022.15
2019-05-15T00:33:19.310Z,1022.14
2019-05-15T00:34:18.459Z,1022.13
2019-05-15T00:35:18.592Z,1022.13
2019-05-15T00:36:19.194Z,1022.12
2019-05-15T00:37:18.408Z,1022.10
2019-05-15T00:38:18.778Z,1022.09
2019-05-15T00:39:18.969Z,1022.08
2019-05-15T00:40:18.560Z,1022.07
2019-05-15T00:41:18.571Z,1022.06
2019-05-15T00:42:18.993Z,1022.08
2019-05-15T00:43:18.475Z,1022.03
2019-05-15T00:44:18.746Z,1022.07
2019-05-15T00:45:18.610Z,1022.03
2019-05-15T00:46:18.449Z,1022.04
2019-05-15T00:47:18.274Z,1022.02
2019-05-15T00:48:18.470Z,1021.98
2019-05-15T00:49:18.896Z,1021.96
2019-05-15T00:50:18.416Z,1021.95
2019-05-15T00:51:19.583Z,1021.97
2019-05-15T00:52:18.229Z,1021.94
2019-05-15T00:53:19.627Z,1021.96
2019-05-15T00:54:19.204Z,1021.95
2019-05-15T00:55:19.036Z,1021.94
2019-05-15T00:56:19.483Z,1021.96
2019-05-15T00:57:19.241Z,1021.89
2019-05-15T00:58:20.025Z,1021.90
2019-05-15T00:59:26.341Z,1021.88
2019-05-15T01:00:18.646Z,1021.86
2019-05-15T01:01:19.251Z,1021.86
2019-05-15T01:02:18.142Z,1021.89
2019-05-15T01:03:18.351Z,1021.89
2019-05-15T01:04:18.760Z,1021.88
2019-05-15T01:05:18.599Z,1021.92
2019-05-15T01:06:19.071Z,1021.91
2019-05-15T01:07:18.803Z,1021.92
2019-05-15T01:08:19.142Z,1021.87
2019-05-15T01:09:18.700Z,1021.88
2019-05-15T01:10:19.403Z,1021.85
2019-05-15T01:11:19.204Z,1021.89
2019-05-15T01:12:18.435Z,1021.87
2019-05-15T01:13:18.994Z,1021.85
2019-05-15T01:14:18.599Z,1021.81
2019-05-15T01:15:18.447Z,1021.84
2019-05-15T01:16:18.666Z,1021.84
2019-05-15T01:17:18.467Z,1021.82
2019-05-15T01:18:18.710Z,1021.81
2019-05-15T01:19:18.494Z,1021.84
2019-05-15T01:20:18.918Z,1021.84
2019-05-15T01:21:18.788Z,1021.84
2019-05-15T01:22:19.536Z,1021.83
2019-05-15T01:23:18.731Z,1021.82
2019-05-15T01:24:18.911Z,1021.81
2019-05-15T01:25:18.585Z,1021.81
2019-05-15T01:26:18.878Z,1021.80
2019-05-15T01:27:18.455Z,1021.77
2019-05-15T01:28:18.328Z,1021.82
2019-05-15T01:29:18.347Z,1021.84
2019-05-15T01:30:18.023Z,1021.79
2019-05-15T01:31:19.060Z,1021.81
2019-05-15T01:32:19.088Z,1021.80
2019-05-15T01:33:19.024Z,1021.81
2019-05-15T01:34:18.446Z,1021.80
2019-05-15T01:35:18.109Z,1021.83
2019-05-15T01:36:19.274Z,1021.83
2019-05-15T01:37:18.895Z,1021.79
2019-05-15T01:38:18.690Z,1021.79
2019-05-15T01:39:18.492Z,1021.82
2019-05-15T01:40:18.294Z,1021.77
2019-05-15T01:41:18.889Z,1021.80
2019-05-15T01:42:18.590Z,1021.78
2019-05-15T01:43:18.697Z,1021.77
2019-05-15T01:44:18.004Z,1021.76
2019-05-15T01:45:18.934Z,1021.76
2019-05-15T01:46:19.059Z,1021.75
2019-05-15T01:47:19.010Z,1021.79
2019-05-15T01:48:18.992Z,1021.78
2019-05-15T01:49:18.714Z,1021.81
2019-05-15T01:50:18.560Z,1021.79
2019-05-15T01:51:18.501Z,1021.79
2019-05-15T01:52:18.786Z,1021.79
2019-05-15T01:53:18.732Z,1021.79
2019-05-15T01:54:18.655Z,1021.77
2019-05-15T01:55:18.211Z,1021.78
2019-05-15T01:56:18.771Z,1021.77
2019-05-15T01:57:18.206Z,1021.79
2019-05-15T01:58:18.668Z,1021.79
2019-05-15T01:59:18.925Z,1021.79
2019-05-15T02:00:18.869Z,1021.73
2019-05-15T02:01:19.209Z,1021.73
2019-05-15T02:02:18.708Z,1021.75
2019-05-15T02:03:18.367Z,1021.76
2019-05-15T02:04:19.728Z,1021.75
2019-05-15T02:05:18.758Z,1021.73
2019-05-15T02:06:18.953Z,1021.74
2019-05-15T02:07:18.665Z,1021.74
2019-05-15T02:08:19.104Z,1021.74
2019-05-15T02:09:18.550Z,1021.76
2019-05-15T02:10:18.624Z,1021.75
2019-05-15T02:11:18.094Z,1021.77
2019-05-15T02:12:19.153Z,1021.75
2019-05-15T02:13:18.683Z,1021.77
2019-05-15T02:14:18.983Z,1021.79
2019-05-15T02:15:19.021Z,1021.81
2019-05-15T02:16:19.180Z,1021.78
2019-05-15T02:17:18.939Z,1021.77
2019-05-15T02:18:19.143Z,1021.76
2019-05-15T02:19:19.363Z,1021.75
2019-05-15T02:20:18.747Z,1021.76
2019-05-15T02:21:18.321Z,1021.77
2019-05-15T02:22:18.895Z,1021.75
2019-05-15T02:23:18.869Z,1021.74
2019-05-15T02:24:18.933Z,1021.77
2019-05-15T02:25:18.552Z,1021.81
2019-05-15T02:26:18.883Z,1021.79
2019-05-15T02:27:18.597Z,1021.81
2019-05-15T02:28:18.403Z,1021.80
2019-05-15T02:29:24.733Z,1021.77
2019-05-15T02:30:27.822Z,1021.80
2019-05-15T02:31:19.577Z,1021.77
2019-05-15T02:32:19.294Z,1021.80
2019-05-15T02:33:18.946Z,1021.78
2019-05-15T02:34:19.455Z,1021.77
2019-05-15T02:35:18.491Z,1021.75
2019-05-15T02:36:20.383Z,1021.74
2019-05-15T02:37:19.241Z,1021.75
2019-05-15T02:38:19.950Z,1021.73
2019-05-15T02:39:18.929Z,1021.74
2019-05-15T02:40:19.097Z,1021.73
2019-05-15T02:41:19.574Z,1021.73
2019-05-15T02:42:19.219Z,1021.70
2019-05-15T02:43:18.986Z,1021.69
2019-05-15T02:44:19.963Z,1021.70
2019-05-15T02:45:19.568Z,1021.71
2019-05-15T02:46:19.473Z,1021.73
2019-05-15T02:47:19.901Z,1021.67
2019-05-15T02:48:19.934Z,1021.69
2019-05-15T02:49:19.192Z,1021.70
2019-05-15T02:50:20.196Z,1021.66
2019-05-15T02:51:19.315Z,1021.65
2019-05-15T02:52:19.890Z,1021.65
2019-05-15T02:53:18.979Z,1021.67
2019-05-15T02:54:19.666Z,1021.66
2019-05-15T02:55:19.557Z,1021.63
2019-05-15T02:56:20.039Z,1021.69
2019-05-15T02:57:19.207Z,1021.68
2019-05-15T02:58:21.195Z,1021.71
2019-05-15T02:59:19.458Z,1021.69
2019-05-15T03:00:35.322Z,1021.65
2019-05-15T03:01:18.937Z,1021.64
2019-05-15T03:02:19.111Z,1021.69
2019-05-15T03:03:17.014Z,1021.68
2019-05-15T03:04:20.015Z,1021.69
2019-05-15T03:05:19.527Z,1021.68
2019-05-15T03:06:19.208Z,1021.66
2019-05-15T03:07:19.315Z,1021.69
2019-05-15T03:08:19.575Z,1021.70
2019-05-15T03:09:18.821Z,1021.67
2019-05-15T03:10:19.900Z,1021.69
2019-05-15T03:11:18.981Z,1021.72
2019-05-15T03:12:19.569Z,1021.71
2019-05-15T03:13:18.900Z,1021.72
2019-05-15T03:14:16.899Z,1021.72
2019-05-15T03:15:19.482Z,1021.71
2019-05-15T03:16:19.326Z,1021.74
2019-05-15T03:17:19.054Z,1021.73
2019-05-15T03:18:19.381Z,1021.70
2019-05-15T03:19:19.340Z,1021.71
2019-05-15T03:20:18.635Z,1021.72
2019-05-15T03:21:18.810Z,1021.72
2019-05-15T03:22:19.350Z,1021.70
2019-05-15T03:23:19.847Z,1021.69
2019-05-15T03:24:19.425Z,1021.70
2019-05-15T03:25:19.186Z,1021.68
2019-05-15T03:26:19.746Z,1021.69
2019-05-15T03:27:19.510Z,1021.68
2019-05-15T03:28:19.090Z,1021.70
2019-05-15T03:29:16.767Z,1021.67
2019-05-15T03:30:21.430Z,1021.67
2019-05-15T03:31:35.058Z,1021.65
2019-05-15T03:32:27.739Z,1021.68
2019-05-15T03:33:25.687Z,1021.69
2019-05-15T03:34:23.429Z,1021.70
2019-05-15T03:35:22.008Z,1021.71
2019-05-15T03:36:22.232Z,1021.71
2019-05-15T03:37:21.838Z,1021.74
2019-05-15T03:38:19.284Z,1021.72
2019-05-15T03:39:19.018Z,1021.70
2019-05-15T03:40:19.427Z,1021.76
2019-05-15T03:41:19.534Z,1021.75
2019-05-15T03:42:19.056Z,1021.76
2019-05-15T03:43:18.570Z,1021.75
2019-05-15T03:44:19.533Z,1021.76
2019-05-15T03:45:19.188Z,1021.75
2019-05-15T03:46:19.695Z,1021.78
2019-05-15T03:47:19.212Z,1021.75
2019-05-15T03:48:19.434Z,1021.76
2019-05-15T03:49:19.703Z,1021.79
2019-05-15T03:50:19.267Z,1021.75
2019-05-15T03:51:19.642Z,1021.73
2019-05-15T03:52:19.088Z,1021.73
2019-05-15T03:53:19.319Z,1021.69
2019-05-15T03:54:18.951Z,1021.69
2019-05-15T03:55:18.681Z,1021.67
2019-05-15T03:56:19.048Z,1021.67
2019-05-15T03:57:20.067Z,1021.66
2019-05-15T03:58:20.926Z,1021.67
2019-05-15T03:59:19.116Z,1021.68
2019-05-15T04:00:19.339Z,1021.68
2019-05-15T04:01:30.246Z,1021.71
2019-05-15T04:02:19.242Z,1021.73
2019-05-15T04:03:19.499Z,1021.68
2019-05-15T04:04:18.935Z,1021.71
2019-05-15T04:05:19.653Z,1021.66
2019-05-15T04:06:19.181Z,1021.68
2019-05-15T04:07:18.855Z,1021.66
2019-05-15T04:08:19.184Z,1021.65
2019-05-15T04:09:18.940Z,1021.66
2019-05-15T04:10:19.751Z,1021.64
2019-05-15T04:11:16.356Z,1021.69
2019-05-15T04:12:19.430Z,1021.67
2019-05-15T04:13:19.286Z,1021.69
2019-05-15T04:14:19.260Z,1021.66
2019-05-15T04:15:18.787Z,1021.68
2019-05-15T04:16:19.091Z,1021.68
2019-05-15T04:17:19.533Z,1021.68
2019-05-15T04:18:19.664Z,1021.68
2019-05-15T04:19:18.873Z,1021.67
2019-05-15T04:20:19.762Z,1021.64
2019-05-15T04:21:19.676Z,1021.65
2019-05-15T04:22:19.487Z,1021.60
2019-05-15T04:23:18.908Z,1021.62
2019-05-15T04:24:18.834Z,1021.61
2019-05-15T04:25:19.033Z,1021.63
2019-05-15T04:26:19.254Z,1021.59
2019-05-15T04:27:19.550Z,1021.59
2019-05-15T04:28:19.126Z,1021.61
2019-05-15T04:29:19.134Z,1021.58
2019-05-15T04:30:18.902Z,1021.60
2019-05-15T04:31:19.179Z,1021.59
2019-05-15T04:32:19.764Z,1021.62
2019-05-15T04:33:16.144Z,1021.63
2019-05-15T04:34:19.265Z,1021.64
2019-05-15T04:35:19.575Z,1021.63
2019-05-15T04:36:18.918Z,1021.66
2019-05-15T04:37:18.756Z,1021.63
2019-05-15T04:38:16.107Z,1021.66
2019-05-15T04:39:19.067Z,1021.64
2019-05-15T04:40:19.164Z,1021.62
2019-05-15T04:41:19.469Z,1021.66
2019-05-15T04:42:16.056Z,1021.62
2019-05-15T04:43:19.196Z,1021.60
2019-05-15T04:44:19.116Z,1021.59
2019-05-15T04:45:19.183Z,1021.63
2019-05-15T04:46:19.240Z,1021.63
2019-05-15T04:47:18.974Z,1021.62
2019-05-15T04:48:16.000Z,1021.69
2019-05-15T04:49:19.058Z,1021.69
2019-05-15T04:50:19.114Z,1021.71
2019-05-15T04:51:18.881Z,1021.68
2019-05-15T04:52:19.346Z,1021.74
2019-05-15T04:53:19.062Z,1021.74
2019-05-15T04:54:15.944Z,1021.71
2019-05-15T04:55:15.938Z,1021.77
2019-05-15T04:56:15.925Z,1021.77
2019-05-15T04:57:15.918Z,1021.78
2019-05-15T04:58:20.297Z,1021.77
2019-05-15T04:59:19.264Z,1021.85
2019-05-15T05:00:15.888Z,1021.81
2019-05-15T05:01:19.704Z,1021.85
2019-05-15T05:02:19.294Z,1021.85
2019-05-15T05:03:19.352Z,1021.85
2019-05-15T05:04:18.703Z,1021.90
2019-05-15T05:05:18.802Z,1021.87
2019-05-15T05:06:18.805Z,1021.91
2019-05-15T05:07:18.711Z,1021.88
2019-05-15T05:08:15.816Z,1021.90
2019-05-15T05:09:15.807Z,1021.92
2019-05-15T05:10:15.797Z,1021.89
2019-05-15T05:11:15.792Z,1021.84
2019-05-15T05:12:15.781Z,1021.87
2019-05-15T05:13:15.772Z,1021.87
2019-05-15T05:14:15.763Z,1021.88
2019-05-15T05:15:15.754Z,1021.89
2019-05-15T05:16:18.868Z,1021.90
2019-05-15T05:17:15.760Z,1021.96
2019-05-15T05:18:18.655Z,1021.99
2019-05-15T05:19:15.739Z,1022.00
2019-05-15T05:20:17.849Z,1022.00
2019-05-15T05:21:15.708Z,1022.01
2019-05-15T05:22:15.700Z,1022.05
2019-05-15T05:23:15.690Z,1022.08
2019-05-15T05:24:15.684Z,1022.04
2019-05-15T05:25:15.683Z,1022.00
2019-05-15T05:26:18.338Z,1022.06
2019-05-15T05:27:18.103Z,1022.06
2019-05-15T05:28:23.377Z,1022.04
2019-05-15T05:30:24.118Z,1022.09
2019-05-15T05:31:09.124Z,1022.08
2019-05-15T05:32:09.323Z,1022.06
2019-05-15T05:33:09.056Z,1022.08
2019-05-15T05:34:09.047Z,1022.07
2019-05-15T05:35:09.040Z,1022.11
2019-05-15T05:36:09.034Z,1022.06
2019-05-15T05:37:09.037Z,1022.05
2019-05-15T05:38:09.018Z,1022.09
2019-05-15T05:39:11.419Z,1022.09
2019-05-15T05:40:09.102Z,1022.08
2019-05-15T05:41:09.003Z,1022.09
2019-05-15T05:42:09.002Z,1022.10
2019-05-15T05:43:09.553Z,1022.11
2019-05-15T05:44:08.984Z,1022.17
2019-05-15T05:45:09.484Z,1022.17
2019-05-15T05:46:09.425Z,1022.12
2019-05-15T05:47:09.348Z,1022.13
2019-05-15T05:48:09.010Z,1022.10
2019-05-15T05:49:08.959Z,1022.08
2019-05-15T05:50:08.976Z,1022.13
2019-05-15T05:51:09.443Z,1022.15
2019-05-15T05:52:08.941Z,1022.16
2019-05-15T05:53:08.969Z,1022.16
2019-05-15T05:54:08.925Z,1022.11
2019-05-15T05:55:09.133Z,1022.16
2019-05-15T05:56:09.169Z,1022.12
2019-05-15T05:57:09.214Z,1022.06
2019-05-15T05:58:08.914Z,1022.12
2019-05-15T05:59:09.554Z,1022.11
2019-05-15T06:00:09.543Z,1022.09
2019-05-15T06:01:09.491Z,1022.06
2019-05-15T06:02:08.884Z,1022.09
2019-05-15T06:03:08.947Z,1022.08
2019-05-15T06:04:08.886Z,1022.10
2019-05-15T06:05:08.871Z,1022.10
2019-05-15T06:06:09.850Z,1022.10
2019-05-15T06:07:13.266Z,1022.11
2019-05-15T06:08:08.863Z,1022.05
2019-05-15T06:09:09.381Z,1022.10
2019-05-15T06:10:09.161Z,1022.10
2019-05-15T06:11:09.739Z,1022.11
2019-05-15T06:12:08.845Z,1022.09
2019-05-15T06:13:08.947Z,1022.14
2019-05-15T06:14:08.914Z,1022.12
2019-05-15T06:15:09.224Z,1022.13
2019-05-15T06:16:08.829Z,1022.12
2019-05-15T06:17:08.827Z,1022.12
2019-05-15T06:18:08.832Z,1022.12
2019-05-15T06:19:08.823Z,1022.12
2019-05-15T06:20:08.820Z,1022.13
2019-05-15T06:21:09.234Z,1022.12
2019-05-15T06:22:08.928Z,1022.13
2019-05-15T06:23:08.801Z,1022.11
2019-05-15T06:24:13.072Z,1022.09
2019-05-15T06:25:11.244Z,1022.11
2019-05-15T06:26:09.540Z,1022.16
2019-05-15T06:27:08.784Z,1022.13
2019-05-15T06:28:09.195Z,1022.10
2019-05-15T06:29:08.987Z,1022.14
2019-05-15T06:30:11.004Z,1022.11
2019-05-15T06:31:09.001Z,1022.14
2019-05-15T06:32:08.765Z,1022.13
2019-05-15T06:33:13.287Z,1022.18
2019-05-15T06:34:08.755Z,1022.21
2019-05-15T06:35:08.887Z,1022.20
2019-05-15T06:36:09.210Z,1022.24
2019-05-15T06:37:08.742Z,1022.16
2019-05-15T06:38:08.734Z,1022.27
2019-05-15T06:39:08.724Z,1022.23
2019-05-15T06:40:09.567Z,1022.21
2019-05-15T06:41:08.953Z,1022.22
2019-05-15T06:42:08.916Z,1022.20
2019-05-15T06:43:08.903Z,1022.25
2019-05-15T06:44:08.709Z,1022.22
2019-05-15T06:45:08.713Z,1022.32
2019-05-15T06:46:09.363Z,1022.29
2019-05-15T06:47:08.697Z,1022.21
2019-05-15T06:48:09.415Z,1022.19
2019-05-15T06:49:08.692Z,1022.22
2019-05-15T06:50:08.801Z,1022.19
2019-05-15T06:51:09.067Z,1022.23
2019-05-15T06:52:08.929Z,1022.21
2019-05-15T06:53:10.852Z,1022.20
2019-05-15T06:54:08.881Z,1022.21
2019-05-15T06:55:09.253Z,1022.20
2019-05-15T06:56:08.672Z,1022.18
2019-05-15T06:57:09.201Z,1022.19
2019-05-15T06:58:09.237Z,1022.23
2019-05-15T06:59:08.919Z,1022.29
2019-05-15T07:00:08.668Z,1022.26
2019-05-15T07:01:08.993Z,1022.30
2019-05-15T07:02:08.645Z,1022.27
2019-05-15T07:03:18.103Z,1022.26
2019-05-15T07:04:08.638Z,1022.27
2019-05-15T07:05:08.646Z,1022.22
2019-05-15T07:06:09.446Z,1022.27
2019-05-15T07:07:11.160Z,1022.22
2019-05-15T07:08:09.154Z,1022.22
2019-05-15T07:09:09.500Z,1022.23
2019-05-15T07:10:09.261Z,1022.24
2019-05-15T07:11:09.005Z,1022.21
2019-05-15T07:12:08.620Z,1022.22
2019-05-15T07:13:08.917Z,1022.18
2019-05-15T07:14:09.003Z,1022.17
2019-05-15T07:15:09.209Z,1022.17
2019-05-15T07:16:08.615Z,1022.17
2019-05-15T07:17:09.304Z,1022.15
2019-05-15T07:18:08.845Z,1022.18
2019-05-15T07:19:08.614Z,1022.18
2019-05-15T07:20:08.790Z,1022.14
2019-05-15T07:21:10.345Z,1022.14
2019-05-15T07:22:09.382Z,1022.07
2019-05-15T07:23:08.966Z,1022.10
2019-05-15T07:24:09.210Z,1022.09
2019-05-15T07:25:08.993Z,1022.06
2019-05-15T07:26:09.439Z,1022.06
2019-05-15T07:27:08.601Z,1022.06
2019-05-15T07:28:08.904Z,1022.04
2019-05-15T07:29:08.605Z,1022.04
2019-05-15T07:30:11.713Z,1022.07
2019-05-15T07:31:11.636Z,1022.13
2019-05-15T07:32:08.593Z,1021.99
2019-05-15T07:33:08.838Z,1022.02
2019-05-15T07:34:08.593Z,1021.97
2019-05-15T07:35:08.593Z,1022.00
2019-05-15T07:36:08.610Z,1022.00
2019-05-15T07:37:09.669Z,1021.98
2019-05-15T07:38:08.588Z,1022.00
2019-05-15T07:39:08.593Z,1021.98
2019-05-15T07:40:08.591Z,1021.98
2019-05-15T07:41:10.234Z,1022.02
2019-05-15T07:42:08.745Z,1022.05
2019-05-15T07:43:09.381Z,1022.06
2019-05-15T07:44:08.580Z,1022.03
2019-05-15T07:45:08.583Z,1022.04
2019-05-15T07:46:08.683Z,1021.97
2019-05-15T07:47:08.964Z,1021.98
2019-05-15T07:48:09.216Z,1022.06
2019-05-15T07:49:09.038Z,1022.01
2019-05-15T07:50:09.079Z,1022.06
2019-05-15T07:51:11.399Z,1022.05
2019-05-15T07:52:08.789Z,1022.04
2019-05-15T07:53:08.866Z,1022.03
2019-05-15T07:54:09.345Z,1022.00
2019-05-15T07:55:08.806Z,1021.95
2019-05-15T07:56:11.873Z,1021.99
2019-05-15T07:57:09.050Z,1021.99
2019-05-15T07:58:08.711Z,1022.00
2019-05-15T07:59:08.587Z,1021.99
2019-05-15T08:00:08.581Z,1021.98
2019-05-15T08:01:10.061Z,1021.91
2019-05-15T08:02:08.600Z,1021.93
2019-05-15T08:03:10.360Z,1021.93
2019-05-15T08:04:24.806Z,1021.92
2019-05-15T08:05:08.592Z,1021.92
2019-05-15T08:06:08.948Z,1021.90
2019-05-15T08:07:09.161Z,1021.91
2019-05-15T08:08:09.188Z,1021.97
2019-05-15T08:09:08.871Z,1021.97
2019-05-15T08:10:08.856Z,1021.93
2019-05-15T08:11:19.750Z,1021.95
2019-05-15T08:12:08.593Z,1021.99
2019-05-15T08:13:08.951Z,1021.99
2019-05-15T08:14:09.069Z,1021.99
2019-05-15T08:15:08.953Z,1021.91
2019-05-15T08:16:08.767Z,1021.97
2019-05-15T08:17:08.809Z,1022.01
2019-05-15T08:18:12.015Z,1021.96
2019-05-15T08:19:08.687Z,1021.97
2019-05-15T08:20:09.123Z,1021.97
2019-05-15T08:21:09.118Z,1021.86
2019-05-15T08:22:08.978Z,1021.83
2019-05-15T08:23:08.638Z,1021.88
2019-05-15T08:24:08.723Z,1021.89
2019-05-15T08:25:12.947Z,1021.83
2019-05-15T08:26:08.919Z,1021.85
2019-05-15T08:27:08.614Z,1021.89
2019-05-15T08:28:09.010Z,1021.90
2019-05-15T08:29:08.617Z,1021.89
2019-05-15T08:30:09.038Z,1021.88
2019-05-15T08:31:10.160Z,1021.85
2019-05-15T08:32:08.648Z,1021.83
2019-05-15T08:33:08.656Z,1021.85
2019-05-15T08:34:13.616Z,1021.87
2019-05-15T08:35:08.627Z,1021.84
2019-05-15T08:36:08.703Z,1021.80
2019-05-15T08:37:08.632Z,1021.76
2019-05-15T08:38:08.932Z,1021.80
2019-05-15T08:39:08.638Z,1021.75
2019-05-15T08:40:08.794Z,1021.72
2019-05-15T08:41:11.542Z,1021.72
2019-05-15T08:42:08.646Z,1021.67
2019-05-15T08:43:11.435Z,1021.72
2019-05-15T08:44:08.863Z,1021.68
2019-05-15T08:45:09.228Z,1021.65
2019-05-15T08:46:08.653Z,1021.61
2019-05-15T08:47:08.652Z,1021.60
2019-05-15T08:48:09.310Z,1021.62
2019-05-15T08:49:09.232Z,1021.62
2019-05-15T08:50:08.955Z,1021.62
2019-05-15T08:51:08.931Z,1021.60
2019-05-15T08:52:10.106Z,1021.66
2019-05-15T08:53:08.668Z,1021.61
2019-05-15T08:54:08.730Z,1021.66
2019-05-15T08:55:08.834Z,1021.60
2019-05-15T08:56:08.745Z,1021.51
2019-05-15T08:57:08.686Z,1021.55
2019-05-15T08:58:13.679Z,1021.58
2019-05-15T08:59:08.923Z,1021.48
2019-05-15T09:00:09.867Z,1021.55
2019-05-15T09:01:09.853Z,1021.52
2019-05-15T09:02:08.697Z,1021.55
2019-05-15T09:03:08.805Z,1021.61
2019-05-15T09:04:09.067Z,1021.53
2019-05-15T09:05:08.883Z,1021.45
2019-05-15T09:06:09.236Z,1021.52
2019-05-15T09:07:09.361Z,1021.47
2019-05-15T09:08:09.289Z,1021.54
2019-05-15T09:09:09.539Z,1021.48
2019-05-15T09:10:09.132Z,1021.49
2019-05-15T09:11:09.424Z,1021.52
2019-05-15T09:12:08.735Z,1021.52
2019-05-15T09:13:09.604Z,1021.45
2019-05-15T09:14:08.718Z,1021.44
2019-05-15T09:15:08.721Z,1021.45
2019-05-15T09:16:08.721Z,1021.41
2019-05-15T09:17:08.779Z,1021.38
2019-05-15T09:18:15.647Z,1021.35
2019-05-15T09:19:08.734Z,1021.39
2019-05-15T09:20:08.735Z,1021.37
2019-05-15T09:21:09.048Z,1021.38
2019-05-15T09:22:09.231Z,1021.32
2019-05-15T09:23:09.083Z,1021.41
2019-05-15T09:24:09.400Z,1021.33
2019-05-15T09:25:10.281Z,1021.39
2019-05-15T09:26:09.394Z,1021.38
2019-05-15T09:27:10.257Z,1021.29
2019-05-15T09:28:08.818Z,1021.35
2019-05-15T09:29:09.466Z,1021.31
2019-05-15T09:30:08.934Z,1021.32
2019-05-15T09:31:08.775Z,1021.29
2019-05-15T09:32:12.394Z,1021.31
2019-05-15T09:33:08.892Z,1021.22
2019-05-15T09:34:09.237Z,1021.29
2019-05-15T09:35:08.773Z,1021.18
2019-05-15T09:36:09.147Z,1021.19
2019-05-15T09:37:08.780Z,1021.23
2019-05-15T09:38:08.815Z,1021.20
2019-05-15T09:39:08.827Z,1021.23
2019-05-15T09:40:09.165Z,1021.23
2019-05-15T09:41:09.211Z,1021.16
2019-05-15T09:42:08.790Z,1021.13
2019-05-15T09:43:10.772Z,1021.18
2019-05-15T09:44:08.805Z,1021.13
2019-05-15T09:45:09.107Z,1021.13
2019-05-15T09:46:10.434Z,1021.12
2019-05-15T09:47:09.274Z,1021.10
2019-05-15T09:48:10.146Z,1021.06
2019-05-15T09:49:09.783Z,1021.10
2019-05-15T09:50:09.775Z,1021.15
2019-05-15T09:51:09.365Z,1021.07
2019-05-15T09:52:09.094Z,1021.04
2019-05-15T09:53:09.364Z,1021.00
2019-05-15T09:54:08.827Z,1020.96
2019-05-15T09:55:08.875Z,1020.96
2019-05-15T09:56:08.848Z,1020.98
2019-05-15T09:57:10.546Z,1021.02
2019-05-15T09:58:08.845Z,1020.99
2019-05-15T09:59:09.203Z,1020.98
2019-05-15T10:00:09.090Z,1021.05
2019-05-15T10:01:08.865Z,1020.98
2019-05-15T10:02:09.285Z,1020.95
2019-05-15T10:03:09.592Z,1020.89
2019-05-15T10:04:08.876Z,1020.89
2019-05-15T10:05:11.141Z,1020.97
2019-05-15T10:06:08.867Z,1020.87
2019-05-15T10:07:08.869Z,1020.89
2019-05-15T10:08:09.164Z,1020.83
2019-05-15T10:09:09.225Z,1020.85
2019-05-15T10:10:08.921Z,1020.86
2019-05-15T10:11:09.221Z,1020.82
2019-05-15T10:12:09.258Z,1020.80
2019-05-15T10:13:09.133Z,1020.81
2019-05-15T10:14:09.779Z,1020.86
2019-05-15T10:15:11.364Z,1020.83
2019-05-15T10:16:08.898Z,1020.70
2019-05-15T10:17:09.284Z,1020.74
2019-05-15T10:18:09.974Z,1020.70
2019-05-15T10:19:09.078Z,1020.68
2019-05-15T10:20:09.289Z,1020.73
2019-05-15T10:21:09.305Z,1020.73
2019-05-15T10:22:09.651Z,1020.66
2019-05-15T10:23:09.028Z,1020.66
2019-05-15T10:24:09.563Z,1020.66
2019-05-15T10:25:08.929Z,1020.74
2019-05-15T10:26:13.989Z,1020.69
2019-05-15T10:27:08.993Z,1020.64
2019-05-15T10:28:09.914Z,1020.63
2019-05-15T10:29:09.280Z,1020.63
2019-05-15T10:30:09.296Z,1020.63
2019-05-15T10:31:09.556Z,1020.57
2019-05-15T10:32:08.952Z,1020.61
2019-05-15T10:33:08.954Z,1020.59
2019-05-15T10:34:09.323Z,1020.63
2019-05-15T10:35:24.120Z,1020.66
2019-05-15T10:36:08.961Z,1020.55
2019-05-15T10:37:08.970Z,1020.55
2019-05-15T10:38:09.054Z,1020.55
2019-05-15T10:39:08.996Z,1020.55
2019-05-15T10:40:09.251Z,1020.47
2019-05-15T10:41:14.834Z,1020.50
2019-05-15T10:42:08.979Z,1020.52
2019-05-15T10:43:09.381Z,1020.52
2019-05-15T10:44:09.402Z,1020.48
2019-05-15T10:45:08.990Z,1020.52
2019-05-15T10:46:13.007Z,1020.44
2019-05-15T10:47:09.026Z,1020.35
2019-05-15T10:48:09.511Z,1020.40
2019-05-15T10:49:09.003Z,1020.32
2019-05-15T10:50:09.004Z,1020.32
2019-05-15T10:51:10.243Z,1020.39
2019-05-15T10:52:11.260Z,1020.42
2019-05-15T10:53:11.322Z,1020.42
2019-05-15T10:54:09.016Z,1020.36
2019-05-15T10:55:09.615Z,1020.25
2019-05-15T10:56:09.138Z,1020.33
2019-05-15T10:57:09.031Z,1020.37
2019-05-15T10:58:16.741Z,1020.35
2019-05-15T10:59:09.038Z,1020.37
2019-05-15T11:00:09.041Z,1020.31
2019-05-15T11:01:11.405Z,1020.30
2019-05-15T11:02:09.045Z,1020.29
2019-05-15T11:03:09.046Z,1020.21
2019-05-15T11:04:09.424Z,1020.28
2019-05-15T11:05:09.555Z,1020.30
2019-05-15T11:06:09.293Z,1020.30
2019-05-15T11:07:09.832Z,1020.33
2019-05-15T11:08:09.070Z,1020.32
2019-05-15T11:09:09.080Z,1020.27
2019-05-15T11:10:09.077Z,1020.29
2019-05-15T11:11:09.406Z,1020.25
2019-05-15T11:12:09.093Z,1020.21
2019-05-15T11:13:09.142Z,1020.21
2019-05-15T11:14:09.384Z,1020.18
2019-05-15T11:15:11.355Z,1020.16
2019-05-15T11:16:09.102Z,1020.14
2019-05-15T11:17:09.102Z,1020.09
2019-05-15T11:18:09.393Z,1020.06
2019-05-15T11:19:09.131Z,1020.10
2019-05-15T11:20:09.117Z,1020.04
2019-05-15T11:21:09.121Z,1020.09
2019-05-15T11:22:09.203Z,1020.06
2019-05-15T11:23:09.129Z,1020.00
2019-05-15T11:24:19.294Z,1020.03
2019-05-15T11:26:02.871Z,1020.03
2019-05-15T11:27:02.800Z,1020.01
2019-05-15T11:28:58.796Z,1020.01
2019-05-15T11:29:58.530Z,1019.90
2019-05-15T11:31:52.453Z,1019.94
2019-05-15T11:32:50.405Z,1019.94
2019-05-15T11:34:43.898Z,1019.81
2019-05-15T11:35:56.879Z,1019.86
2019-05-15T11:37:44.010Z,1019.93
2019-05-15T11:38:38.213Z,1019.98
2019-05-15T11:40:38.965Z,1019.96
2019-05-15T11:41:31.906Z,1019.85
2019-05-15T11:43:25.328Z,1019.93
2019-05-15T11:44:25.303Z,1019.80
2019-05-15T11:46:20.848Z,1019.81
2019-05-15T11:47:18.748Z,1019.74
2019-05-15T11:49:12.212Z,1019.75
2019-05-15T11:50:12.173Z,1019.78
2019-05-15T11:52:05.683Z,1019.76
2019-05-15T11:53:08.496Z,1019.79
2019-05-15T11:55:00.364Z,1019.83
2019-05-15T11:56:00.331Z,1019.75
2019-05-15T11:57:00.305Z,1019.84
2019-05-15T11:58:00.307Z,1019.83
2019-05-15T11:59:00.323Z,1019.83
2019-05-15T12:00:00.315Z,1019.80
2019-05-15T12:01:00.342Z,1019.77
2019-05-15T12:02:00.325Z,1019.70
2019-05-15T12:03:00.321Z,1019.78
2019-05-15T12:04:00.327Z,1019.76
2019-05-15T12:05:00.333Z,1019.63
2019-05-15T12:06:14.833Z,1019.61
2019-05-15T12:07:02.651Z,1019.74
2019-05-15T12:08:00.343Z,1019.72
2019-05-15T12:09:00.346Z,1019.68
2019-05-15T12:10:00.344Z,1019.72
2019-05-15T12:11:00.355Z,1019.69
2019-05-15T12:12:00.403Z,1019.77
2019-05-15T12:13:00.353Z,1019.71
2019-05-15T12:14:00.359Z,1019.77
2019-05-15T12:15:00.364Z,1019.80
2019-05-15T12:16:00.364Z,1019.73